Accueil
METAR-TAF:

METAR-TAF

Aéroports :

Tunis, Tunisie

Aéroport international de Tunis-Carthage

latitude: 36-50N, longitude: 010-14E, altitude: 3 m

Observation

Le bulletin a été fait il y a 1 heure et 13 minutes, à 21:30 UTC
Vent calme
Température 29°C
Humidité 62%
Pression 1011 hPa
Visibilité 10 km ou plus
Quelques nuages à une hauteur de 3300 ft

METAR: DTTA 272130Z 00000KT 9999 FEW033 29/21 Q1011 NOSIG

Heure: 23:43 (22:43 UTC)

Prévision

Le bulletin a été fait il y a 5 heures et 3 minutes, à 17:40 UTC
Prévision valable du 27 à 18 UTC au 28 à 18 UTC
Vent 4 kt de direction variable
Visibilité 10 km ou plus
Quelques nuages à une hauteur de 3300 ft
Evoluant progressivement
du 28 à 06 UTC au 28 à 08 UTC
Vent 12 kt de nord/nord-ouest

TAF: DTTA 271740Z 2718/2818 02008KT 9999 FEW033 BE J 46 6LM 6 C VRB04KT BECMG 2806/2808 34012KT

Observations et prévisions météorologiques de plus de 4000 aéroports (messages METAR et TAF).

Les stations disponibles sont représentées par des disques jaunes et rouges sur la carte.

Passer la souris dessus pour voir le nom de la station.

Cliquer dessus pour voir les observations et prévisions météorologiques.

Pour changer de carte: cliquez sur les boutons verts avec une croix noire pour zoomer, sur le bouton vert avec un tiret pour effectuer un zoom arrière, ou sur les flèches vertes pour les cartes adjacentes.


METAR-TAF: